createdAt,value
2022-09-21T00:01:09.445Z,101297.16
2022-09-21T00:06:08.508Z,101295.75
2022-09-21T00:11:06.191Z,101289.09
2022-09-21T00:16:05.643Z,101303.56
2022-09-21T00:21:06.765Z,101307.84
2022-09-21T00:26:11.787Z,101308.34
2022-09-21T00:31:12.150Z,101309.63
2022-09-21T00:36:10.938Z,101310.31
2022-09-21T00:41:08.303Z,101319.13
2022-09-21T00:46:15.827Z,101310.53
2022-09-21T00:51:13.089Z,101312.63
2022-09-21T00:56:11.295Z,101320.78
2022-09-21T01:01:07.853Z,101321.84
2022-09-21T01:06:04.448Z,101324.50
2022-09-21T01:11:39.236Z,101319.31
2022-09-21T01:17:23.977Z,101320.38
2022-09-21T01:22:57.203Z,101316.00
2022-09-21T01:28:21.485Z,101321.53
2022-09-21T01:33:26.239Z,101320.88
2022-09-21T01:38:31.704Z,101323.25
2022-09-21T01:43:34.181Z,101325.31
2022-09-21T01:48:39.435Z,101327.44
2022-09-21T01:53:51.151Z,101336.06
2022-09-21T01:58:54.892Z,101330.47
2022-09-21T02:03:59.811Z,101324.38
2022-09-21T02:08:57.646Z,101328.22
2022-09-21T02:13:55.352Z,101333.13
2022-09-21T02:19:10.831Z,101336.66
2022-09-21T02:24:21.859Z,101334.06
2022-09-21T02:30:09.297Z,101339.16
2022-09-21T02:35:19.647Z,101337.69
2022-09-21T02:40:40.154Z,101334.34
2022-09-21T02:45:49.017Z,101322.91
2022-09-21T02:50:50.239Z,101330.06
2022-09-21T02:55:50.239Z,101335.25
2022-09-21T03:00:48.401Z,101329.97
2022-09-21T03:05:51.028Z,101332.63
2022-09-21T03:10:50.605Z,101335.25
2022-09-21T03:15:47.265Z,101339.03
2022-09-21T03:20:46.089Z,101338.16
2022-09-21T03:25:46.196Z,101348.91
2022-09-21T03:30:42.848Z,101355.16
2022-09-21T03:35:39.817Z,101353.78
2022-09-21T03:40:39.187Z,101351.06
2022-09-21T03:45:35.510Z,101359.75
2022-09-21T03:50:31.880Z,101355.75
2022-09-21T03:55:28.219Z,101359.13
2022-09-21T04:00:24.706Z,101363.28
2022-09-21T04:05:22.022Z,101358.41
2022-09-21T04:10:21.886Z,101353.38
2022-09-21T04:15:19.577Z,101348.44
2022-09-21T04:20:15.996Z,101353.53
2022-09-21T04:25:12.799Z,101357.00
2022-09-21T04:30:12.166Z,101362.09
2022-09-21T04:35:08.974Z,101360.22
2022-09-21T04:40:06.091Z,101358.28
2022-09-21T04:45:02.582Z,101362.47
2022-09-21T04:49:58.908Z,101361.59
2022-09-21T04:54:56.371Z,101367.03
2022-09-21T04:59:52.666Z,101358.97
2022-09-21T05:04:51.150Z,101368.50
2022-09-21T05:10:02.613Z,101375.38
2022-09-21T05:14:59.140Z,101366.44
2022-09-21T05:19:55.566Z,101380.38
2022-09-21T05:24:51.867Z,101382.91
2022-09-21T05:29:48.499Z,101396.59
2022-09-21T05:34:57.900Z,101400.81
2022-09-21T05:39:54.475Z,101397.94
2022-09-21T05:44:51.028Z,101406.59
2022-09-21T05:50:06.190Z,101414.56
2022-09-21T05:55:13.035Z,101423.03
2022-09-21T06:00:19.650Z,101412.69
2022-09-21T06:05:17.034Z,101429.16
2022-09-21T06:10:14.025Z,101431.19
2022-09-21T06:15:14.979Z,101429.59
2022-09-21T06:20:11.543Z,101435.03
2022-09-21T06:25:08.206Z,101436.03
2022-09-21T06:30:05.233Z,101428.84
2022-09-21T06:35:01.559Z,101427.69
2022-09-21T06:39:57.877Z,101417.56
2022-09-21T06:44:55.542Z,101392.72
2022-09-21T06:49:53.449Z,101388.78
2022-09-21T06:54:49.803Z,101381.44
2022-09-21T06:59:47.041Z,101378.69
2022-09-21T07:04:44.012Z,101380.28
2022-09-21T07:14:56.583Z,101379.34
2022-09-21T07:19:52.859Z,101371.69
2022-09-21T07:24:49.138Z,101378.16
2022-09-21T07:29:45.467Z,101382.63
2022-09-21T07:34:41.774Z,101381.84
2022-09-21T07:39:38.895Z,101389.97
2022-09-21T07:44:35.203Z,101388.41
2022-09-21T07:49:31.478Z,101379.25
2022-09-21T07:54:27.752Z,101384.97
2022-09-21T07:59:24.060Z,101384.81
2022-09-21T08:04:20.395Z,101390.59
2022-09-21T08:09:16.750Z,101382.72
2022-09-21T08:14:23.686Z,101390.41
2022-09-21T08:19:25.620Z,101392.56
2022-09-21T08:24:21.985Z,101397.66
2022-09-21T08:29:18.719Z,101401.50
2022-09-21T08:34:16.122Z,101404.81
2022-09-21T08:39:12.970Z,101408.97
2022-09-21T08:44:17.737Z,101404.03
2022-09-21T08:49:23.300Z,101409.47
2022-09-21T08:54:27.242Z,101412.91
2022-09-21T08:59:23.585Z,101417.78
2022-09-21T09:04:33.560Z,101415.00
2022-09-21T09:09:54.981Z,101410.28
2022-09-21T09:15:19.211Z,101418.00
2022-09-21T09:20:24.147Z,101417.88
2022-09-21T09:25:27.012Z,101414.38
2022-09-21T09:30:30.265Z,101415.53
2022-09-21T09:35:47.083Z,101427.13
2022-09-21T09:41:17.414Z,101429.28
2022-09-21T09:46:52.559Z,101431.94
2022-09-21T09:51:49.073Z,101422.63
2022-09-21T09:56:45.387Z,101423.06
2022-09-21T10:01:46.421Z,101429.22
2022-09-21T10:06:46.320Z,101432.22
2022-09-21T10:11:43.326Z,101435.41
2022-09-21T10:16:43.775Z,101433.13
2022-09-21T10:21:51.877Z,101427.09
2022-09-21T10:26:54.415Z,101423.72
2022-09-21T10:32:07.411Z,101427.72
2022-09-21T10:37:26.969Z,101422.50
2022-09-21T10:42:23.336Z,101425.97
2022-09-21T10:47:31.238Z,101427.09
2022-09-21T10:52:40.631Z,101430.66
2022-09-21T10:57:41.790Z,101419.94
2022-09-21T11:02:39.030Z,101422.34
2022-09-21T11:07:43.308Z,101430.00
2022-09-21T11:12:57.055Z,101425.66
2022-09-21T11:18:03.071Z,101429.88
2022-09-21T11:23:10.922Z,101418.91
2022-09-21T11:28:24.553Z,101426.91
2022-09-21T11:33:41.981Z,101431.78
2022-09-21T11:38:58.248Z,101424.78
2022-09-21T11:44:25.501Z,101409.84
2022-09-21T11:49:35.022Z,101412.25
2022-09-21T11:54:51.875Z,101401.13
2022-09-21T11:59:59.866Z,101394.31
2022-09-21T12:05:07.210Z,101392.19
2022-09-21T12:10:44.785Z,101389.38
2022-09-21T12:15:49.976Z,101390.81
2022-09-21T12:21:01.639Z,101388.19
2022-09-21T12:25:59.297Z,101380.53
2022-09-21T12:31:01.567Z,101382.56
2022-09-21T12:36:07.397Z,101382.25
2022-09-21T12:41:22.973Z,101388.75
2022-09-21T12:46:36.649Z,101379.44
2022-09-21T12:51:41.304Z,101377.84
2022-09-21T12:56:45.059Z,101369.50
2022-09-21T13:01:57.157Z,101369.09
2022-09-21T13:07:21.707Z,101366.81
2022-09-21T13:12:25.866Z,101364.94
2022-09-21T13:17:26.660Z,101355.19
2022-09-21T13:22:25.687Z,101348.66
2022-09-21T13:27:22.138Z,101343.28
2022-09-21T13:32:18.441Z,101347.25
2022-09-21T13:37:27.470Z,101339.03
2022-09-21T13:42:32.975Z,101341.13
2022-09-21T13:47:34.355Z,101338.03
2022-09-21T13:52:40.229Z,101336.84
2022-09-21T13:57:41.731Z,101327.25
2022-09-21T14:02:50.320Z,101328.44
2022-09-21T14:07:48.146Z,101318.91
2022-09-21T14:12:45.473Z,101313.50
2022-09-21T14:17:42.838Z,101316.19
2022-09-21T14:22:40.598Z,101314.44
2022-09-21T14:27:45.645Z,101301.97
2022-09-21T14:32:47.330Z,101309.03
2022-09-21T14:37:56.089Z,101299.59
2022-09-21T14:42:54.506Z,101298.41
2022-09-21T14:48:20.981Z,101292.00
2022-09-21T14:53:39.139Z,101290.84
2022-09-21T14:59:12.520Z,101296.66
2022-09-21T15:04:36.974Z,101282.16
2022-09-21T15:10:33.713Z,101285.06
2022-09-21T15:15:48.454Z,101283.50
2022-09-21T15:20:44.839Z,101278.75
2022-09-21T15:25:41.706Z,101272.19
2022-09-21T15:30:45.758Z,101283.63
2022-09-21T15:35:46.943Z,101269.22
2022-09-21T15:40:47.567Z,101265.38
2022-09-21T15:45:54.591Z,101270.31
2022-09-21T15:50:58.084Z,101261.00
2022-09-21T15:55:54.821Z,101259.44
2022-09-21T16:00:55.023Z,101256.66
2022-09-21T16:05:56.242Z,101259.31
2022-09-21T16:10:54.896Z,101263.66
2022-09-21T16:16:12.228Z,101254.66
2022-09-21T16:21:16.090Z,101261.72
2022-09-21T16:26:37.430Z,101258.06
2022-09-21T16:31:37.184Z,101256.66
2022-09-21T16:36:41.839Z,101248.25
2022-09-21T16:41:41.286Z,101238.47
2022-09-21T16:46:37.675Z,101242.19
2022-09-21T16:51:34.043Z,101256.78
2022-09-21T16:56:32.531Z,101252.69
2022-09-21T17:01:29.198Z,101260.66
2022-09-21T17:06:25.592Z,101269.63
2022-09-21T17:11:21.981Z,101260.75
2022-09-21T17:16:20.112Z,101257.41
2022-09-21T17:21:17.331Z,101259.88
2022-09-21T17:26:19.215Z,101256.00
2022-09-21T17:31:16.582Z,101253.31
2022-09-21T17:36:14.699Z,101252.75
2022-09-21T17:41:52.137Z,101252.22
2022-09-21T17:47:02.133Z,101240.47
2022-09-21T17:52:17.459Z,101249.13
2022-09-21T17:57:46.225Z,101239.03
2022-09-21T18:02:43.517Z,101232.72
2022-09-21T18:07:41.109Z,101234.16
2022-09-21T18:12:50.801Z,101239.22
2022-09-21T18:18:02.770Z,101238.13
2022-09-21T18:23:17.871Z,101240.78
2022-09-21T18:28:33.212Z,101241.59
2022-09-21T18:33:51.454Z,101242.31
2022-09-21T18:38:56.255Z,101239.88
2022-09-21T18:44:09.052Z,101235.03
2022-09-21T18:49:33.190Z,101236.75
2022-09-21T18:54:29.686Z,101238.47
2022-09-21T18:59:31.050Z,101236.25
2022-09-21T19:04:29.065Z,101241.28
2022-09-21T19:09:38.481Z,101236.31
2022-09-21T19:14:48.041Z,101232.53
2022-09-21T19:20:03.286Z,101237.31
2022-09-21T19:25:21.007Z,101234.38
2022-09-21T19:30:17.742Z,101239.38
2022-09-21T19:35:19.229Z,101236.59
2022-09-21T19:40:17.918Z,101236.25
2022-09-21T19:45:33.256Z,101235.81
2022-09-21T19:50:53.164Z,101230.00
2022-09-21T19:56:08.326Z,101225.16
2022-09-21T20:01:04.848Z,101227.63
2022-09-21T20:06:25.925Z,101226.84
2022-09-21T20:11:41.799Z,101226.97
2022-09-21T20:16:48.904Z,101228.25
2022-09-21T20:21:49.231Z,101225.72
2022-09-21T20:26:49.498Z,101233.25
2022-09-21T20:31:48.772Z,101228.63
2022-09-21T20:36:45.083Z,101223.47
2022-09-21T20:41:41.401Z,101232.50
2022-09-21T20:46:37.697Z,101222.44
2022-09-21T20:51:35.758Z,101223.53
2022-09-21T20:56:33.486Z,101230.44
2022-09-21T21:01:29.899Z,101234.03
2022-09-21T21:06:26.232Z,101232.00
2022-09-21T21:11:23.162Z,101232.00
2022-09-21T21:16:19.606Z,101231.41
2022-09-21T21:21:15.946Z,101242.16
2022-09-21T21:26:12.250Z,101244.34
2022-09-21T21:31:08.770Z,101246.63
2022-09-21T21:36:08.071Z,101254.53
2022-09-21T21:41:04.914Z,101255.88
2022-09-21T21:46:02.792Z,101248.06
2022-09-21T21:51:00.674Z,101258.97
2022-09-21T21:56:14.960Z,101251.59
2022-09-21T22:01:21.665Z,101249.00
2022-09-21T22:06:18.686Z,101250.84
2022-09-21T22:11:17.541Z,101252.31
2022-09-21T22:16:16.315Z,101252.69
2022-09-21T22:21:41.266Z,101251.41
2022-09-21T22:26:41.048Z,101248.78
2022-09-21T22:31:40.911Z,101244.63
2022-09-21T22:36:38.181Z,101237.88
2022-09-21T22:41:37.179Z,101242.31
2022-09-21T22:46:34.212Z,101243.53
2022-09-21T22:51:30.711Z,101239.63
2022-09-21T22:56:29.903Z,101242.53
2022-09-21T23:01:27.480Z,101240.00
2022-09-21T23:06:26.630Z,101231.63
2022-09-21T23:11:29.310Z,101232.03
2022-09-21T23:16:27.605Z,101232.19
2022-09-21T23:21:26.937Z,101234.06
2022-09-21T23:26:24.656Z,101237.31
2022-09-21T23:31:21.474Z,101232.47
2022-09-21T23:36:21.474Z,101236.19
2022-09-21T23:41:26.330Z,101238.00
2022-09-21T23:46:26.246Z,101228.47
2022-09-21T23:51:23.225Z,101230.28
2022-09-21T23:56:22.312Z,101231.72
